sensor_id;sensor_type;location;lat;lon;timestamp;P1;durP1;ratioP1;P2;durP2;ratioP2
65558;SDS011;52203;51.998;5.140;2023-05-02T00:01:49;18.13;;;7.38;;
65558;SDS011;52203;51.998;5.140;2023-05-02T00:04:16;20.83;;;8.50;;
65558;SDS011;52203;51.998;5.140;2023-05-02T00:06:41;19.35;;;7.93;;
65558;SDS011;52203;51.998;5.140;2023-05-02T00:09:07;18.55;;;7.60;;
65558;SDS011;52203;51.998;5.140;2023-05-02T00:11:33;21.42;;;8.10;;
65558;SDS011;52203;51.998;5.140;2023-05-02T00:13:58;22.27;;;9.13;;
65558;SDS011;52203;51.998;5.140;2023-05-02T00:16:24;22.40;;;9.00;;
65558;SDS011;52203;51.998;5.140;2023-05-02T00:18:49;19.50;;;8.15;;
65558;SDS011;52203;51.998;5.140;2023-05-02T00:21:15;22.27;;;8.85;;
65558;SDS011;52203;51.998;5.140;2023-05-02T00:23:40;23.15;;;9.40;;
65558;SDS011;52203;51.998;5.140;2023-05-02T00:26:09;21.33;;;9.20;;
65558;SDS011;52203;51.998;5.140;2023-05-02T00:28:35;24.45;;;9.73;;
65558;SDS011;52203;51.998;5.140;2023-05-02T00:31:00;20.73;;;9.13;;
65558;SDS011;52203;51.998;5.140;2023-05-02T00:33:26;21.20;;;9.52;;
65558;SDS011;52203;51.998;5.140;2023-05-02T00:35:51;23.98;;;8.50;;
65558;SDS011;52203;51.998;5.140;2023-05-02T00:38:17;23.27;;;9.38;;
65558;SDS011;52203;51.998;5.140;2023-05-02T00:43:10;24.23;;;10.18;;
65558;SDS011;52203;51.998;5.140;2023-05-02T00:45:36;23.75;;;10.18;;
65558;SDS011;52203;51.998;5.140;2023-05-02T00:48:05;24.05;;;10.75;;
65558;SDS011;52203;51.998;5.140;2023-05-02T00:50:31;22.13;;;10.00;;
65558;SDS011;52203;51.998;5.140;2023-05-02T00:52:59;24.38;;;10.70;;
65558;SDS011;52203;51.998;5.140;2023-05-02T00:55:27;24.33;;;9.60;;
65558;SDS011;52203;51.998;5.140;2023-05-02T00:57:53;26.17;;;11.23;;
65558;SDS011;52203;51.998;5.140;2023-05-02T01:00:18;24.13;;;9.73;;
65558;SDS011;52203;51.998;5.140;2023-05-02T01:05:20;21.90;;;9.50;;
65558;SDS011;52203;51.998;5.140;2023-05-02T01:08:07;21.40;;;10.18;;
65558;SDS011;52203;51.998;5.140;2023-05-02T01:13:18;17.38;;;8.32;;
65558;SDS011;52203;51.998;5.140;2023-05-02T01:15:46;19.52;;;8.88;;
65558;SDS011;52203;51.998;5.140;2023-05-02T01:18:15;21.48;;;9.98;;
65558;SDS011;52203;51.998;5.140;2023-05-02T01:20:45;22.60;;;9.13;;
65558;SDS011;52203;51.998;5.140;2023-05-02T01:23:29;16.80;;;7.90;;
65558;SDS011;52203;51.998;5.140;2023-05-02T01:28:50;14.00;;;6.38;;
65558;SDS011;52203;51.998;5.140;2023-05-02T01:31:21;19.30;;;6.53;;
65558;SDS011;52203;51.998;5.140;2023-05-02T01:33:49;20.10;;;7.78;;
65558;SDS011;52203;51.998;5.140;2023-05-02T01:36:16;13.32;;;5.82;;
65558;SDS011;52203;51.998;5.140;2023-05-02T01:38:43;12.88;;;6.00;;
65558;SDS011;52203;51.998;5.140;2023-05-02T01:41:09;11.80;;;5.63;;
65558;SDS011;52203;51.998;5.140;2023-05-02T01:43:37;13.05;;;5.55;;
65558;SDS011;52203;51.998;5.140;2023-05-02T01:46:05;12.23;;;4.85;;
65558;SDS011;52203;51.998;5.140;2023-05-02T01:48:33;10.40;;;4.43;;
65558;SDS011;52203;51.998;5.140;2023-05-02T01:51:00;12.00;;;4.00;;
65558;SDS011;52203;51.998;5.140;2023-05-02T01:53:28;16.15;;;4.03;;
65558;SDS011;52203;51.998;5.140;2023-05-02T01:55:57;8.90;;;4.38;;
65558;SDS011;52203;51.998;5.140;2023-05-02T01:58:24;12.90;;;4.93;;
65558;SDS011;52203;51.998;5.140;2023-05-02T02:00:52;12.10;;;4.20;;
65558;SDS011;52203;51.998;5.140;2023-05-02T02:03:19;9.75;;;3.63;;
65558;SDS011;52203;51.998;5.140;2023-05-02T02:05:46;9.35;;;3.70;;
65558;SDS011;52203;51.998;5.140;2023-05-02T02:08:13;6.68;;;3.50;;
65558;SDS011;52203;51.998;5.140;2023-05-02T02:10:39;7.13;;;3.50;;
65558;SDS011;52203;51.998;5.140;2023-05-02T02:13:15;10.48;;;4.30;;
65558;SDS011;52203;51.998;5.140;2023-05-02T02:15:46;7.88;;;3.90;;
65558;SDS011;52203;51.998;5.140;2023-05-02T02:18:22;6.55;;;3.78;;
65558;SDS011;52203;51.998;5.140;2023-05-02T02:20:50;8.57;;;3.83;;
65558;SDS011;52203;51.998;5.140;2023-05-02T02:23:18;8.52;;;3.88;;
65558;SDS011;52203;51.998;5.140;2023-05-02T02:25:46;8.48;;;3.55;;
65558;SDS011;52203;51.998;5.140;2023-05-02T02:28:14;11.73;;;3.92;;
65558;SDS011;52203;51.998;5.140;2023-05-02T02:30:40;9.18;;;3.53;;
65558;SDS011;52203;51.998;5.140;2023-05-02T02:33:05;10.90;;;3.30;;
65558;SDS011;52203;51.998;5.140;2023-05-02T02:35:33;8.43;;;3.75;;
65558;SDS011;52203;51.998;5.140;2023-05-02T02:38:09;7.32;;;2.92;;
65558;SDS011;52203;51.998;5.140;2023-05-02T02:40:43;7.35;;;2.83;;
65558;SDS011;52203;51.998;5.140;2023-05-02T02:46:16;7.22;;;2.47;;
65558;SDS011;52203;51.998;5.140;2023-05-02T02:48:48;7.05;;;2.60;;
65558;SDS011;52203;51.998;5.140;2023-05-02T02:51:22;5.07;;;1.90;;
65558;SDS011;52203;51.998;5.140;2023-05-02T02:56:40;5.63;;;1.85;;
65558;SDS011;52203;51.998;5.140;2023-05-02T03:01:42;3.17;;;1.60;;
65558;SDS011;52203;51.998;5.140;2023-05-02T03:04:13;4.47;;;1.45;;
65558;SDS011;52203;51.998;5.140;2023-05-02T03:06:40;4.35;;;1.80;;
65558;SDS011;52203;51.998;5.140;2023-05-02T03:09:13;9.45;;;2.20;;
65558;SDS011;52203;51.998;5.140;2023-05-02T03:11:41;7.05;;;1.65;;
65558;SDS011;52203;51.998;5.140;2023-05-02T03:14:06;6.47;;;1.65;;
65558;SDS011;52203;51.998;5.140;2023-05-02T03:16:36;4.35;;;1.60;;
65558;SDS011;52203;51.998;5.140;2023-05-02T03:19:03;8.70;;;2.53;;
65558;SDS011;52203;51.998;5.140;2023-05-02T03:21:30;4.53;;;2.20;;
65558;SDS011;52203;51.998;5.140;2023-05-02T03:24:04;5.28;;;1.50;;
65558;SDS011;52203;51.998;5.140;2023-05-02T03:26:30;3.95;;;1.45;;
65558;SDS011;52203;51.998;5.140;2023-05-02T03:28:56;3.38;;;1.65;;
65558;SDS011;52203;51.998;5.140;2023-05-02T03:31:21;4.63;;;1.58;;
65558;SDS011;52203;51.998;5.140;2023-05-02T03:33:47;5.30;;;1.60;;
65558;SDS011;52203;51.998;5.140;2023-05-02T03:36:14;5.03;;;1.45;;
65558;SDS011;52203;51.998;5.140;2023-05-02T03:38:40;3.42;;;1.20;;
65558;SDS011;52203;51.998;5.140;2023-05-02T03:41:06;4.57;;;1.50;;
65558;SDS011;52203;51.998;5.140;2023-05-02T03:43:32;5.07;;;1.50;;
65558;SDS011;52203;51.998;5.140;2023-05-02T03:46:02;4.32;;;1.45;;
65558;SDS011;52203;51.998;5.140;2023-05-02T03:48:33;4.05;;;1.33;;
65558;SDS011;52203;51.998;5.140;2023-05-02T03:51:00;3.80;;;1.40;;
65558;SDS011;52203;51.998;5.140;2023-05-02T03:53:26;5.97;;;1.50;;
65558;SDS011;52203;51.998;5.140;2023-05-02T03:55:52;5.13;;;1.40;;
65558;SDS011;52203;51.998;5.140;2023-05-02T03:58:18;2.85;;;1.30;;
65558;SDS011;52203;51.998;5.140;2023-05-02T04:00:44;4.93;;;1.40;;
65558;SDS011;52203;51.998;5.140;2023-05-02T04:03:09;3.17;;;1.08;;
65558;SDS011;52203;51.998;5.140;2023-05-02T04:05:35;4.70;;;1.40;;
65558;SDS011;52203;51.998;5.140;2023-05-02T04:08:00;5.80;;;1.80;;
65558;SDS011;52203;51.998;5.140;2023-05-02T04:10:27;3.90;;;1.27;;
65558;SDS011;52203;51.998;5.140;2023-05-02T04:12:52;3.10;;;1.15;;
65558;SDS011;52203;51.998;5.140;2023-05-02T04:15:18;6.10;;;1.50;;
65558;SDS011;52203;51.998;5.140;2023-05-02T04:17:44;5.55;;;1.30;;
65558;SDS011;52203;51.998;5.140;2023-05-02T04:20:10;3.58;;;1.30;;
65558;SDS011;52203;51.998;5.140;2023-05-02T04:22:36;4.45;;;1.35;;
65558;SDS011;52203;51.998;5.140;2023-05-02T04:25:03;5.60;;;1.60;;
65558;SDS011;52203;51.998;5.140;2023-05-02T04:27:31;4.90;;;1.30;;
65558;SDS011;52203;51.998;5.140;2023-05-02T04:29:56;4.82;;;1.40;;
65558;SDS011;52203;51.998;5.140;2023-05-02T04:32:22;3.60;;;1.38;;
65558;SDS011;52203;51.998;5.140;2023-05-02T04:34:48;6.50;;;1.50;;
65558;SDS011;52203;51.998;5.140;2023-05-02T04:37:13;3.38;;;1.30;;
65558;SDS011;52203;51.998;5.140;2023-05-02T04:39:39;5.82;;;1.95;;
65558;SDS011;52203;51.998;5.140;2023-05-02T04:42:04;2.53;;;1.30;;
65558;SDS011;52203;51.998;5.140;2023-05-02T04:44:30;4.78;;;1.33;;
65558;SDS011;52203;51.998;5.140;2023-05-02T04:46:56;2.95;;;1.48;;
65558;SDS011;52203;51.998;5.140;2023-05-02T04:49:21;6.35;;;1.50;;
65558;SDS011;52203;51.998;5.140;2023-05-02T04:51:47;5.97;;;1.60;;
65558;SDS011;52203;51.998;5.140;2023-05-02T04:54:12;6.28;;;1.35;;
65558;SDS011;52203;51.998;5.140;2023-05-02T04:56:38;5.07;;;1.92;;
65558;SDS011;52203;51.998;5.140;2023-05-02T04:59:04;4.60;;;1.83;;
65558;SDS011;52203;51.998;5.140;2023-05-02T05:01:29;8.20;;;2.35;;
65558;SDS011;52203;51.998;5.140;2023-05-02T05:03:55;7.78;;;1.95;;
65558;SDS011;52203;51.998;5.140;2023-05-02T05:06:21;3.78;;;1.70;;
65558;SDS011;52203;51.998;5.140;2023-05-02T05:08:47;6.47;;;1.77;;
65558;SDS011;52203;51.998;5.140;2023-05-02T05:11:13;10.10;;;1.90;;
65558;SDS011;52203;51.998;5.140;2023-05-02T05:13:40;9.50;;;2.05;;
65558;SDS011;52203;51.998;5.140;2023-05-02T05:16:06;7.55;;;1.95;;
65558;SDS011;52203;51.998;5.140;2023-05-02T05:18:32;7.35;;;1.80;;
65558;SDS011;52203;51.998;5.140;2023-05-02T05:21:04;7.32;;;2.20;;
65558;SDS011;52203;51.998;5.140;2023-05-02T05:23:33;6.65;;;2.15;;
65558;SDS011;52203;51.998;5.140;2023-05-02T05:26:12;8.10;;;2.10;;
65558;SDS011;52203;51.998;5.140;2023-05-02T05:28:39;10.30;;;3.17;;
65558;SDS011;52203;51.998;5.140;2023-05-02T05:31:06;11.13;;;2.70;;
65558;SDS011;52203;51.998;5.140;2023-05-02T05:33:33;5.97;;;2.38;;
65558;SDS011;52203;51.998;5.140;2023-05-02T05:36:06;7.90;;;2.40;;
65558;SDS011;52203;51.998;5.140;2023-05-02T05:38:32;6.07;;;2.60;;
65558;SDS011;52203;51.998;5.140;2023-05-02T05:40:58;7.55;;;2.40;;
65558;SDS011;52203;51.998;5.140;2023-05-02T05:43:25;7.75;;;2.30;;
65558;SDS011;52203;51.998;5.140;2023-05-02T05:45:51;8.07;;;2.20;;
65558;SDS011;52203;51.998;5.140;2023-05-02T05:48:17;7.72;;;2.40;;
65558;SDS011;52203;51.998;5.140;2023-05-02T05:50:43;7.55;;;2.20;;
65558;SDS011;52203;51.998;5.140;2023-05-02T05:53:09;11.63;;;2.30;;
65558;SDS011;52203;51.998;5.140;2023-05-02T05:55:34;7.75;;;2.20;;
65558;SDS011;52203;51.998;5.140;2023-05-02T05:58:02;13.05;;;2.42;;
65558;SDS011;52203;51.998;5.140;2023-05-02T06:00:27;6.88;;;2.22;;
65558;SDS011;52203;51.998;5.140;2023-05-02T06:02:53;7.65;;;2.38;;
65558;SDS011;52203;51.998;5.140;2023-05-02T06:05:18;6.78;;;2.45;;
65558;SDS011;52203;51.998;5.140;2023-05-02T06:07:44;6.00;;;1.90;;
65558;SDS011;52203;51.998;5.140;2023-05-02T06:10:09;9.23;;;2.30;;
65558;SDS011;52203;51.998;5.140;2023-05-02T06:12:35;11.95;;;2.88;;
65558;SDS011;52203;51.998;5.140;2023-05-02T06:15:00;8.00;;;2.60;;
65558;SDS011;52203;51.998;5.140;2023-05-02T06:17:26;9.40;;;2.22;;
65558;SDS011;52203;51.998;5.140;2023-05-02T06:19:52;6.65;;;2.30;;
65558;SDS011;52203;51.998;5.140;2023-05-02T06:22:17;7.07;;;2.47;;
65558;SDS011;52203;51.998;5.140;2023-05-02T06:24:43;7.72;;;2.40;;
65558;SDS011;52203;51.998;5.140;2023-05-02T06:27:08;7.60;;;2.85;;
65558;SDS011;52203;51.998;5.140;2023-05-02T06:29:34;9.50;;;2.70;;
65558;SDS011;52203;51.998;5.140;2023-05-02T06:32:00;4.25;;;2.40;;
65558;SDS011;52203;51.998;5.140;2023-05-02T06:34:26;9.43;;;2.30;;
65558;SDS011;52203;51.998;5.140;2023-05-02T06:36:54;6.13;;;2.42;;
65558;SDS011;52203;51.998;5.140;2023-05-02T06:39:20;6.88;;;1.98;;
65558;SDS011;52203;51.998;5.140;2023-05-02T06:41:46;6.45;;;2.00;;
65558;SDS011;52203;51.998;5.140;2023-05-02T06:44:12;5.10;;;1.77;;
65558;SDS011;52203;51.998;5.140;2023-05-02T06:46:38;4.85;;;2.08;;
65558;SDS011;52203;51.998;5.140;2023-05-02T06:49:04;8.15;;;2.08;;
65558;SDS011;52203;51.998;5.140;2023-05-02T06:51:29;5.25;;;1.70;;
65558;SDS011;52203;51.998;5.140;2023-05-02T06:53:56;7.97;;;2.10;;
65558;SDS011;52203;51.998;5.140;2023-05-02T06:56:22;6.55;;;2.03;;
65558;SDS011;52203;51.998;5.140;2023-05-02T06:58:50;5.40;;;2.00;;
65558;SDS011;52203;51.998;5.140;2023-05-02T07:01:15;5.60;;;1.70;;
65558;SDS011;52203;51.998;5.140;2023-05-02T07:03:41;6.75;;;1.60;;
65558;SDS011;52203;51.998;5.140;2023-05-02T07:06:07;4.32;;;1.75;;
65558;SDS011;52203;51.998;5.140;2023-05-02T07:08:32;5.00;;;1.52;;
65558;SDS011;52203;51.998;5.140;2023-05-02T07:10:58;3.03;;;1.30;;
65558;SDS011;52203;51.998;5.140;2023-05-02T07:13:23;4.03;;;1.55;;
65558;SDS011;52203;51.998;5.140;2023-05-02T07:15:49;5.65;;;1.60;;
65558;SDS011;52203;51.998;5.140;2023-05-02T07:18:14;6.43;;;2.20;;
65558;SDS011;52203;51.998;5.140;2023-05-02T07:20:40;4.05;;;1.75;;
65558;SDS011;52203;51.998;5.140;2023-05-02T07:23:06;5.32;;;1.55;;
65558;SDS011;52203;51.998;5.140;2023-05-02T07:25:33;4.00;;;1.80;;
65558;SDS011;52203;51.998;5.140;2023-05-02T07:27:59;6.35;;;1.63;;
65558;SDS011;52203;51.998;5.140;2023-05-02T07:30:24;3.13;;;1.60;;
65558;SDS011;52203;51.998;5.140;2023-05-02T07:32:50;4.57;;;1.80;;
65558;SDS011;52203;51.998;5.140;2023-05-02T07:35:15;7.85;;;1.80;;
65558;SDS011;52203;51.998;5.140;2023-05-02T07:37:41;5.85;;;2.17;;
65558;SDS011;52203;51.998;5.140;2023-05-02T07:40:07;4.18;;;1.80;;
65558;SDS011;52203;51.998;5.140;2023-05-02T07:42:33;5.45;;;2.00;;
65558;SDS011;52203;51.998;5.140;2023-05-02T07:45:00;7.38;;;2.50;;
65558;SDS011;52203;51.998;5.140;2023-05-02T07:47:26;8.23;;;2.15;;
65558;SDS011;52203;51.998;5.140;2023-05-02T07:49:52;5.57;;;2.10;;
65558;SDS011;52203;51.998;5.140;2023-05-02T07:52:18;8.65;;;2.03;;
65558;SDS011;52203;51.998;5.140;2023-05-02T07:54:46;8.38;;;2.17;;
65558;SDS011;52203;51.998;5.140;2023-05-02T07:57:13;5.95;;;1.77;;
65558;SDS011;52203;51.998;5.140;2023-05-02T07:59:39;6.13;;;1.88;;
65558;SDS011;52203;51.998;5.140;2023-05-02T08:02:05;5.63;;;1.83;;
65558;SDS011;52203;51.998;5.140;2023-05-02T08:04:31;7.07;;;2.08;;
65558;SDS011;52203;51.998;5.140;2023-05-02T08:06:56;7.93;;;2.38;;
65558;SDS011;52203;51.998;5.140;2023-05-02T08:09:22;5.88;;;1.70;;
65558;SDS011;52203;51.998;5.140;2023-05-02T08:11:47;6.53;;;1.67;;
65558;SDS011;52203;51.998;5.140;2023-05-02T08:14:14;8.65;;;1.90;;
65558;SDS011;52203;51.998;5.140;2023-05-02T08:16:40;6.22;;;1.73;;
65558;SDS011;52203;51.998;5.140;2023-05-02T08:19:06;9.55;;;2.00;;
65558;SDS011;52203;51.998;5.140;2023-05-02T08:21:32;5.47;;;2.10;;
65558;SDS011;52203;51.998;5.140;2023-05-02T12:33:41;4.57;;;2.50;;
65558;SDS011;52203;51.998;5.140;2023-05-02T12:36:08;8.30;;;2.80;;
65558;SDS011;52203;51.998;5.140;2023-05-02T12:38:34;4.82;;;3.13;;
65558;SDS011;52203;51.998;5.140;2023-05-02T12:41:00;4.82;;;2.40;;
65558;SDS011;52203;51.998;5.140;2023-05-02T12:43:26;4.75;;;2.67;;
65558;SDS011;52203;51.998;5.140;2023-05-02T12:46:08;8.90;;;2.88;;
65558;SDS011;52203;51.998;5.140;2023-05-02T12:48:34;4.82;;;2.63;;
65558;SDS011;52203;51.998;5.140;2023-05-02T12:50:59;7.70;;;2.80;;
65558;SDS011;52203;51.998;5.140;2023-05-02T12:56:20;6.47;;;2.42;;
65558;SDS011;52203;51.998;5.140;2023-05-02T12:58:48;6.32;;;2.60;;
65558;SDS011;52203;51.998;5.140;2023-05-02T13:01:14;6.30;;;2.30;;
65558;SDS011;52203;51.998;5.140;2023-05-02T13:03:40;5.82;;;2.72;;
65558;SDS011;52203;51.998;5.140;2023-05-02T13:06:07;5.38;;;2.78;;
65558;SDS011;52203;51.998;5.140;2023-05-02T13:08:33;8.00;;;3.45;;
65558;SDS011;52203;51.998;5.140;2023-05-02T13:11:00;7.78;;;3.03;;
65558;SDS011;52203;51.998;5.140;2023-05-02T13:13:27;5.93;;;2.70;;
65558;SDS011;52203;51.998;5.140;2023-05-02T13:15:53;6.88;;;3.20;;
65558;SDS011;52203;51.998;5.140;2023-05-02T13:18:19;5.05;;;2.55;;
65558;SDS011;52203;51.998;5.140;2023-05-02T13:20:44;7.03;;;3.05;;
65558;SDS011;52203;51.998;5.140;2023-05-02T13:23:10;6.80;;;2.90;;
65558;SDS011;52203;51.998;5.140;2023-05-02T13:25:36;7.40;;;2.72;;
65558;SDS011;52203;51.998;5.140;2023-05-02T13:28:01;5.40;;;2.67;;
65558;SDS011;52203;51.998;5.140;2023-05-02T13:30:27;5.90;;;2.90;;
65558;SDS011;52203;51.998;5.140;2023-05-02T13:32:52;6.40;;;2.60;;
65558;SDS011;52203;51.998;5.140;2023-05-02T13:35:18;8.27;;;2.65;;
65558;SDS011;52203;51.998;5.140;2023-05-02T13:37:43;8.07;;;2.75;;
65558;SDS011;52203;51.998;5.140;2023-05-02T13:40:09;7.78;;;2.90;;
65558;SDS011;52203;51.998;5.140;2023-05-02T13:42:35;8.57;;;2.90;;
65558;SDS011;52203;51.998;5.140;2023-05-02T13:45:01;6.75;;;2.80;;
65558;SDS011;52203;51.998;5.140;2023-05-02T13:47:30;6.28;;;2.75;;
65558;SDS011;52203;51.998;5.140;2023-05-02T13:49:56;6.88;;;2.90;;
65558;SDS011;52203;51.998;5.140;2023-05-02T13:52:21;5.07;;;2.80;;
65558;SDS011;52203;51.998;5.140;2023-05-02T13:54:47;8.02;;;2.85;;
65558;SDS011;52203;51.998;5.140;2023-05-02T13:57:12;8.60;;;2.60;;
65558;SDS011;52203;51.998;5.140;2023-05-02T13:59:38;8.30;;;3.20;;
65558;SDS011;52203;51.998;5.140;2023-05-02T14:02:03;7.13;;;3.08;;
65558;SDS011;52203;51.998;5.140;2023-05-02T14:04:29;11.70;;;3.25;;
65558;SDS011;52203;51.998;5.140;2023-05-02T14:06:55;7.63;;;3.30;;
65558;SDS011;52203;51.998;5.140;2023-05-02T14:09:21;4.93;;;2.63;;
65558;SDS011;52203;51.998;5.140;2023-05-02T14:11:46;7.20;;;2.90;;
65558;SDS011;52203;51.998;5.140;2023-05-02T14:14:12;11.05;;;2.90;;
65558;SDS011;52203;51.998;5.140;2023-05-02T14:16:38;7.05;;;3.42;;
65558;SDS011;52203;51.998;5.140;2023-05-02T14:19:04;7.95;;;3.15;;
65558;SDS011;52203;51.998;5.140;2023-05-02T14:21:32;6.30;;;3.00;;
65558;SDS011;52203;51.998;5.140;2023-05-02T14:23:58;12.18;;;3.25;;
65558;SDS011;52203;51.998;5.140;2023-05-02T14:26:25;9.77;;;2.95;;
65558;SDS011;52203;51.998;5.140;2023-05-02T14:28:51;6.53;;;2.90;;
65558;SDS011;52203;51.998;5.140;2023-05-02T14:31:16;6.47;;;2.97;;
65558;SDS011;52203;51.998;5.140;2023-05-02T14:33:42;8.93;;;3.17;;
65558;SDS011;52203;51.998;5.140;2023-05-02T14:36:08;8.50;;;3.63;;
65558;SDS011;52203;51.998;5.140;2023-05-02T14:38:33;10.45;;;3.40;;
65558;SDS011;52203;51.998;5.140;2023-05-02T14:40:59;10.90;;;3.25;;
65558;SDS011;52203;51.998;5.140;2023-05-02T14:43:26;6.38;;;3.10;;
65558;SDS011;52203;51.998;5.140;2023-05-02T14:45:52;10.75;;;3.78;;
65558;SDS011;52203;51.998;5.140;2023-05-02T14:48:18;7.22;;;3.08;;
65558;SDS011;52203;51.998;5.140;2023-05-02T14:50:44;6.20;;;2.85;;
65558;SDS011;52203;51.998;5.140;2023-05-02T14:53:10;6.95;;;3.15;;
65558;SDS011;52203;51.998;5.140;2023-05-02T14:55:39;6.80;;;3.08;;
65558;SDS011;52203;51.998;5.140;2023-05-02T14:58:05;9.18;;;3.05;;
65558;SDS011;52203;51.998;5.140;2023-05-02T15:00:35;9.18;;;3.53;;
65558;SDS011;52203;51.998;5.140;2023-05-02T15:03:02;10.65;;;3.42;;
65558;SDS011;52203;51.998;5.140;2023-05-02T15:05:31;9.75;;;3.10;;
65558;SDS011;52203;51.998;5.140;2023-05-02T15:07:56;5.82;;;3.22;;
65558;SDS011;52203;51.998;5.140;2023-05-02T15:10:22;7.32;;;2.90;;
65558;SDS011;52203;51.998;5.140;2023-05-02T15:12:47;9.05;;;3.30;;
65558;SDS011;52203;51.998;5.140;2023-05-02T15:15:16;7.00;;;3.78;;
65558;SDS011;52203;51.998;5.140;2023-05-02T15:17:42;5.45;;;2.95;;
65558;SDS011;52203;51.998;5.140;2023-05-02T15:20:08;10.43;;;3.42;;
65558;SDS011;52203;51.998;5.140;2023-05-02T15:22:35;8.55;;;3.08;;
65558;SDS011;52203;51.998;5.140;2023-05-02T15:25:01;10.70;;;3.03;;
65558;SDS011;52203;51.998;5.140;2023-05-02T15:27:29;6.88;;;2.80;;
65558;SDS011;52203;51.998;5.140;2023-05-02T15:29:57;8.18;;;3.22;;
65558;SDS011;52203;51.998;5.140;2023-05-02T15:32:22;8.00;;;2.80;;
65558;SDS011;52203;51.998;5.140;2023-05-02T15:34:48;8.43;;;3.25;;
65558;SDS011;52203;51.998;5.140;2023-05-02T15:37:13;7.45;;;3.40;;
65558;SDS011;52203;51.998;5.140;2023-05-02T15:39:39;8.55;;;3.15;;
65558;SDS011;52203;51.998;5.140;2023-05-02T15:42:05;8.15;;;3.20;;
65558;SDS011;52203;51.998;5.140;2023-05-02T15:44:34;7.10;;;2.90;;
65558;SDS011;52203;51.998;5.140;2023-05-02T15:47:03;9.45;;;3.22;;
65558;SDS011;52203;51.998;5.140;2023-05-02T15:49:28;6.55;;;2.60;;
65558;SDS011;52203;51.998;5.140;2023-05-02T15:51:57;6.22;;;3.22;;
65558;SDS011;52203;51.998;5.140;2023-05-02T15:54:23;5.93;;;2.63;;
65558;SDS011;52203;51.998;5.140;2023-05-02T15:56:49;10.00;;;3.05;;
65558;SDS011;52203;51.998;5.140;2023-05-02T15:59:14;7.47;;;3.70;;
65558;SDS011;52203;51.998;5.140;2023-05-02T16:01:40;7.10;;;2.97;;
65558;SDS011;52203;51.998;5.140;2023-05-02T16:04:05;7.32;;;2.88;;
65558;SDS011;52203;51.998;5.140;2023-05-02T16:06:33;5.97;;;3.00;;
65558;SDS011;52203;51.998;5.140;2023-05-02T16:08:59;6.22;;;3.03;;
65558;SDS011;52203;51.998;5.140;2023-05-02T16:11:24;7.22;;;2.83;;
65558;SDS011;52203;51.998;5.140;2023-05-02T16:13:50;8.35;;;3.08;;
65558;SDS011;52203;51.998;5.140;2023-05-02T16:16:16;6.57;;;2.92;;
65558;SDS011;52203;51.998;5.140;2023-05-02T16:18:41;7.35;;;2.53;;
65558;SDS011;52203;51.998;5.140;2023-05-02T16:21:07;6.43;;;2.50;;
65558;SDS011;52203;51.998;5.140;2023-05-02T16:23:33;6.72;;;2.42;;
65558;SDS011;52203;51.998;5.140;2023-05-02T16:25:58;8.23;;;2.60;;
65558;SDS011;52203;51.998;5.140;2023-05-02T16:28:25;6.95;;;2.60;;
65558;SDS011;52203;51.998;5.140;2023-05-02T16:30:51;5.82;;;2.08;;
65558;SDS011;52203;51.998;5.140;2023-05-02T16:33:19;5.50;;;2.17;;
65558;SDS011;52203;51.998;5.140;2023-05-02T16:35:45;5.15;;;2.28;;
65558;SDS011;52203;51.998;5.140;2023-05-02T16:38:11;7.78;;;2.55;;
65558;SDS011;52203;51.998;5.140;2023-05-02T16:40:37;5.78;;;2.40;;
65558;SDS011;52203;51.998;5.140;2023-05-02T16:43:04;6.80;;;2.10;;
65558;SDS011;52203;51.998;5.140;2023-05-02T16:45:29;4.13;;;1.92;;
65558;SDS011;52203;51.998;5.140;2023-05-02T16:47:55;5.80;;;2.33;;
65558;SDS011;52203;51.998;5.140;2023-05-02T16:50:21;5.13;;;1.90;;
65558;SDS011;52203;51.998;5.140;2023-05-02T16:52:47;4.13;;;1.63;;
65558;SDS011;52203;51.998;5.140;2023-05-02T16:55:13;5.97;;;2.10;;
65558;SDS011;52203;51.998;5.140;2023-05-02T16:57:38;4.70;;;1.77;;
65558;SDS011;52203;51.998;5.140;2023-05-02T17:00:04;3.50;;;1.50;;
65558;SDS011;52203;51.998;5.140;2023-05-02T17:02:32;5.07;;;1.65;;
65558;SDS011;52203;51.998;5.140;2023-05-02T17:04:57;5.43;;;2.50;;
65558;SDS011;52203;51.998;5.140;2023-05-02T17:07:23;5.93;;;1.67;;
65558;SDS011;52203;51.998;5.140;2023-05-02T17:09:48;5.43;;;2.35;;
65558;SDS011;52203;51.998;5.140;2023-05-02T17:12:14;6.13;;;3.08;;
65558;SDS011;52203;51.998;5.140;2023-05-02T17:14:46;3.55;;;1.60;;
65558;SDS011;52203;51.998;5.140;2023-05-02T17:17:12;3.42;;;1.55;;
65558;SDS011;52203;51.998;5.140;2023-05-02T17:19:37;3.55;;;1.65;;
65558;SDS011;52203;51.998;5.140;2023-05-02T17:22:03;4.78;;;1.63;;
65558;SDS011;52203;51.998;5.140;2023-05-02T17:24:29;2.97;;;1.83;;
65558;SDS011;52203;51.998;5.140;2023-05-02T17:26:54;3.45;;;1.33;;
65558;SDS011;52203;51.998;5.140;2023-05-02T17:29:22;2.85;;;1.20;;
65558;SDS011;52203;51.998;5.140;2023-05-02T17:31:48;2.80;;;1.58;;
65558;SDS011;52203;51.998;5.140;2023-05-02T17:34:13;4.10;;;1.50;;
65558;SDS011;52203;51.998;5.140;2023-05-02T17:36:39;5.07;;;1.55;;
65558;SDS011;52203;51.998;5.140;2023-05-02T17:39:07;3.75;;;1.42;;
65558;SDS011;52203;51.998;5.140;2023-05-02T17:41:34;2.65;;;1.45;;
65558;SDS011;52203;51.998;5.140;2023-05-02T17:44:00;2.40;;;1.40;;
65558;SDS011;52203;51.998;5.140;2023-05-02T17:46:28;2.53;;;1.20;;
65558;SDS011;52203;51.998;5.140;2023-05-02T17:48:54;4.68;;;1.70;;
65558;SDS011;52203;51.998;5.140;2023-05-02T17:51:20;2.47;;;1.60;;
65558;SDS011;52203;51.998;5.140;2023-05-02T17:53:45;3.20;;;1.58;;
65558;SDS011;52203;51.998;5.140;2023-05-02T17:56:11;2.53;;;1.25;;
65558;SDS011;52203;51.998;5.140;2023-05-02T17:58:39;5.00;;;1.70;;
65558;SDS011;52203;51.998;5.140;2023-05-02T18:01:05;2.35;;;1.55;;
65558;SDS011;52203;51.998;5.140;2023-05-02T18:03:35;3.75;;;1.58;;
65558;SDS011;52203;51.998;5.140;2023-05-02T18:06:01;5.00;;;1.30;;
65558;SDS011;52203;51.998;5.140;2023-05-02T18:08:27;4.05;;;1.40;;
65558;SDS011;52203;51.998;5.140;2023-05-02T18:10:55;2.97;;;1.40;;
65558;SDS011;52203;51.998;5.140;2023-05-02T18:13:22;3.03;;;1.83;;
65558;SDS011;52203;51.998;5.140;2023-05-02T18:15:54;3.53;;;1.20;;
65558;SDS011;52203;51.998;5.140;2023-05-02T18:18:21;3.97;;;1.60;;
65558;SDS011;52203;51.998;5.140;2023-05-02T18:20:46;4.95;;;1.63;;
65558;SDS011;52203;51.998;5.140;2023-05-02T18:23:12;3.65;;;1.45;;
65558;SDS011;52203;51.998;5.140;2023-05-02T18:25:37;4.90;;;1.63;;
65558;SDS011;52203;51.998;5.140;2023-05-02T18:28:03;6.68;;;1.77;;
65558;SDS011;52203;51.998;5.140;2023-05-02T18:30:28;3.00;;;1.55;;
65558;SDS011;52203;51.998;5.140;2023-05-02T18:32:54;4.80;;;1.45;;
65558;SDS011;52203;51.998;5.140;2023-05-02T18:35:19;2.92;;;1.30;;
65558;SDS011;52203;51.998;5.140;2023-05-02T18:37:45;1.73;;;1.35;;
65558;SDS011;52203;51.998;5.140;2023-05-02T18:40:10;4.65;;;1.45;;
65558;SDS011;52203;51.998;5.140;2023-05-02T18:42:36;2.78;;;1.25;;
65558;SDS011;52203;51.998;5.140;2023-05-02T18:45:02;3.92;;;1.40;;
65558;SDS011;52203;51.998;5.140;2023-05-02T18:47:29;2.72;;;1.30;;
65558;SDS011;52203;51.998;5.140;2023-05-02T18:49:55;5.80;;;1.50;;
65558;SDS011;52203;51.998;5.140;2023-05-02T18:52:22;3.03;;;1.35;;
65558;SDS011;52203;51.998;5.140;2023-05-02T18:54:48;2.10;;;1.17;;
65558;SDS011;52203;51.998;5.140;2023-05-02T18:57:14;3.72;;;1.30;;
65558;SDS011;52203;51.998;5.140;2023-05-02T18:59:40;1.90;;;1.25;;
65558;SDS011;52203;51.998;5.140;2023-05-02T19:02:05;2.33;;;1.40;;
65558;SDS011;52203;51.998;5.140;2023-05-02T19:04:31;4.07;;;1.13;;
65558;SDS011;52203;51.998;5.140;2023-05-02T19:06:56;1.95;;;1.20;;
65558;SDS011;52203;51.998;5.140;2023-05-02T19:09:22;4.53;;;1.27;;
65558;SDS011;52203;51.998;5.140;2023-05-02T19:11:48;2.95;;;1.10;;
65558;SDS011;52203;51.998;5.140;2023-05-02T19:14:13;3.70;;;1.40;;